createdAt,value
2022-10-17T00:02:13.554Z,75.13
2022-10-17T00:04:41.342Z,74.50
2022-10-17T00:07:09.182Z,73.54
2022-10-17T00:09:37.163Z,73.00
2022-10-17T00:12:05.751Z,74.32
2022-10-17T00:14:33.733Z,74.00
2022-10-17T00:17:01.672Z,73.16
2022-10-17T00:19:29.680Z,73.82
2022-10-17T00:21:57.718Z,73.80
2022-10-17T00:24:25.645Z,73.77
2022-10-17T00:26:53.616Z,74.34
2022-10-17T00:29:21.399Z,74.46
2022-10-17T00:31:49.361Z,76.40
2022-10-17T00:34:19.465Z,75.84
2022-10-17T00:36:47.015Z,75.19
2022-10-17T00:39:14.661Z,75.19
2022-10-17T00:41:42.202Z,74.70
2022-10-17T00:44:31.619Z,73.35
2022-10-17T00:47:10.521Z,74.09
2022-10-17T00:49:40.574Z,73.18
2022-10-17T00:52:23.516Z,73.72
2022-10-17T00:55:10.809Z,73.13
2022-10-17T00:57:40.779Z,73.83
2022-10-17T01:00:12.020Z,73.10
2022-10-17T01:02:40.037Z,73.64
2022-10-17T01:05:09.759Z,73.58
2022-10-17T01:07:41.333Z,73.45
2022-10-17T01:10:11.091Z,74.14
2022-10-17T01:13:01.320Z,76.51
2022-10-17T01:16:13.745Z,74.17
2022-10-17T01:19:28.093Z,73.07
2022-10-17T01:22:12.312Z,72.79
2022-10-17T01:25:24.495Z,74.88
2022-10-17T01:28:56.831Z,73.92
2022-10-17T01:31:45.666Z,74.10
2022-10-17T01:34:22.661Z,73.30
2022-10-17T01:37:34.741Z,73.72
2022-10-17T01:40:22.574Z,73.61
2022-10-17T01:43:08.119Z,73.01
2022-10-17T01:46:00.756Z,74.43
2022-10-17T01:48:37.440Z,73.69
2022-10-17T01:51:23.172Z,74.40
2022-10-17T01:54:13.477Z,72.63
2022-10-17T01:56:43.770Z,72.33
2022-10-17T01:59:29.154Z,72.12
2022-10-17T02:01:59.374Z,73.27
2022-10-17T02:04:27.932Z,72.93
2022-10-17T02:06:55.294Z,72.68
2022-10-17T02:09:27.565Z,71.37
2022-10-17T02:12:32.381Z,72.94
2022-10-17T02:15:33.052Z,72.28
2022-10-17T02:18:55.276Z,73.46
2022-10-17T02:21:37.768Z,74.23
2022-10-17T02:24:33.774Z,74.65
2022-10-17T02:27:24.056Z,73.93
2022-10-17T02:30:50.834Z,74.84
2022-10-17T02:33:39.386Z,73.65
2022-10-17T02:36:17.673Z,74.98
2022-10-17T02:38:46.907Z,74.20
2022-10-17T02:41:19.915Z,74.31
2022-10-17T02:43:51.031Z,74.67
2022-10-17T02:46:23.825Z,73.59
2022-10-17T02:49:14.968Z,73.31
2022-10-17T02:52:11.068Z,74.21
2022-10-17T02:54:59.278Z,73.83
2022-10-17T02:58:01.231Z,73.53
2022-10-17T03:00:31.222Z,73.39
2022-10-17T03:02:59.271Z,74.75
2022-10-17T03:05:29.833Z,76.38
2022-10-17T03:07:57.694Z,75.32
2022-10-17T03:10:51.828Z,73.17
2022-10-17T03:13:19.872Z,73.03
2022-10-17T03:15:47.530Z,73.08
2022-10-17T03:18:15.146Z,72.97
2022-10-17T03:20:45.360Z,72.74
2022-10-17T03:23:12.898Z,72.06
2022-10-17T03:25:42.180Z,72.40
2022-10-17T03:28:12.276Z,71.36
2022-10-17T03:30:40.291Z,71.16
2022-10-17T03:33:07.849Z,71.51
2022-10-17T03:35:40.420Z,71.70
2022-10-17T03:38:08.677Z,72.81
2022-10-17T03:40:37.399Z,73.43
2022-10-17T03:43:05.302Z,72.91
2022-10-17T03:45:33.631Z,73.14
2022-10-17T03:48:04.475Z,73.70
2022-10-17T03:50:34.948Z,74.28
2022-10-17T03:53:06.301Z,73.23
2022-10-17T03:55:33.958Z,72.03
2022-10-17T03:58:02.602Z,72.64
2022-10-17T04:00:30.631Z,73.50
2022-10-17T04:02:59.232Z,73.39
2022-10-17T04:05:27.440Z,72.74
2022-10-17T04:07:54.953Z,73.58
2022-10-17T04:10:32.136Z,74.74
2022-10-17T04:12:59.691Z,74.53
2022-10-17T04:15:29.800Z,73.58
2022-10-17T04:17:58.121Z,75.41
2022-10-17T04:20:27.026Z,76.09
2022-10-17T04:22:55.323Z,75.41
2022-10-17T04:25:29.665Z,74.37
2022-10-17T04:27:59.943Z,76.89
2022-10-17T04:30:28.416Z,76.67
2022-10-17T04:32:56.506Z,76.67
2022-10-17T04:35:24.314Z,75.25
2022-10-17T04:38:00.188Z,75.51
2022-10-17T04:40:28.745Z,75.21
2022-10-17T04:42:57.667Z,75.03
2022-10-17T04:45:33.179Z,75.25
2022-10-17T04:48:05.555Z,76.31
2022-10-17T04:50:33.390Z,75.50
2022-10-17T04:53:23.132Z,75.74
2022-10-17T04:55:51.066Z,76.52
2022-10-17T04:58:19.753Z,76.36
2022-10-17T05:00:47.753Z,75.79
2022-10-17T05:03:21.741Z,74.27
2022-10-17T05:05:49.360Z,74.30
2022-10-17T05:08:17.599Z,74.33
2022-10-17T05:10:46.676Z,73.18
2022-10-17T05:13:14.945Z,73.97
2022-10-17T05:15:42.774Z,73.68
2022-10-17T05:18:11.765Z,73.17
2022-10-17T05:20:42.434Z,73.73
2022-10-17T05:23:10.878Z,74.43
2022-10-17T05:25:42.387Z,75.24
2022-10-17T05:28:09.855Z,75.24
2022-10-17T05:30:38.975Z,74.37
2022-10-17T05:33:11.793Z,74.76
2022-10-17T05:35:40.479Z,74.35
2022-10-17T05:38:08.263Z,73.65
2022-10-17T05:40:38.747Z,72.81
2022-10-17T05:43:06.677Z,71.71
2022-10-17T05:45:34.489Z,71.94
2022-10-17T05:48:02.287Z,72.39
2022-10-17T05:50:29.973Z,73.72
2022-10-17T05:53:05.582Z,73.46
2022-10-17T05:55:38.864Z,74.28
2022-10-17T05:58:06.953Z,73.30
2022-10-17T06:00:38.849Z,72.80
2022-10-17T06:03:09.021Z,71.98
2022-10-17T06:05:38.167Z,70.60
2022-10-17T06:08:05.913Z,70.39
2022-10-17T06:10:36.544Z,71.28
2022-10-17T06:13:04.802Z,72.53
2022-10-17T06:15:32.480Z,72.47
2022-10-17T06:18:05.761Z,71.86
2022-10-17T06:20:33.577Z,71.81
2022-10-17T06:23:01.703Z,71.81
2022-10-17T06:25:52.693Z,71.60
2022-10-17T06:28:20.740Z,71.97
2022-10-17T06:48:02.107Z,71.12
2022-10-17T08:25:27.108Z,27.54
2022-10-17T08:27:54.608Z,29.49
2022-10-17T08:30:22.047Z,26.98
2022-10-17T08:32:49.336Z,25.23
2022-10-17T08:35:16.885Z,24.22
2022-10-17T08:37:44.237Z,24.00
2022-10-17T08:40:35.473Z,21.94
2022-10-17T08:43:43.674Z,20.82
2022-10-17T08:46:12.333Z,22.22
2022-10-17T08:48:47.109Z,23.31
2022-10-17T08:51:28.344Z,22.85
2022-10-17T08:54:20.594Z,22.49
2022-10-17T08:56:53.646Z,21.32
2022-10-17T08:59:28.844Z,20.33
2022-10-17T09:02:41.968Z,19.42
2022-10-17T09:05:33.653Z,18.94
2022-10-17T09:08:29.184Z,18.47
2022-10-17T09:11:33.958Z,18.59
2022-10-17T09:14:43.268Z,19.34
2022-10-17T09:17:52.579Z,18.47
2022-10-17T09:20:33.675Z,17.86
2022-10-17T09:23:13.833Z,16.92
2022-10-17T09:25:49.434Z,16.28
2022-10-17T09:28:35.018Z,17.79
2022-10-17T09:31:13.245Z,19.42
2022-10-17T09:33:54.569Z,20.55
2022-10-17T09:36:37.679Z,21.42
2022-10-17T09:39:13.664Z,22.89
2022-10-17T09:41:50.684Z,21.66
2022-10-17T09:44:23.562Z,22.30
2022-10-17T09:47:04.626Z,21.95
2022-10-17T09:49:43.845Z,20.44
2022-10-17T09:52:47.727Z,20.80
2022-10-17T09:55:25.883Z,22.51
2022-10-17T09:57:59.339Z,24.47
2022-10-17T10:00:35.108Z,25.07
2022-10-17T10:03:19.218Z,24.75
2022-10-17T10:06:14.343Z,24.11
2022-10-17T10:09:29.773Z,24.59
2022-10-17T10:12:09.845Z,24.25
2022-10-17T10:14:40.384Z,23.64
2022-10-17T10:17:36.509Z,23.73
2022-10-17T10:20:37.613Z,21.75
2022-10-17T10:23:18.374Z,20.20
2022-10-17T10:26:00.436Z,19.43
2022-10-17T10:28:36.609Z,19.83
2022-10-17T10:31:20.354Z,20.14
2022-10-17T10:33:50.891Z,20.53
2022-10-17T10:36:32.018Z,22.25
2022-10-17T10:39:03.817Z,22.35
2022-10-17T10:41:48.494Z,21.82
2022-10-17T10:44:22.206Z,20.81
2022-10-17T10:47:25.488Z,20.23
2022-10-17T10:50:34.619Z,19.57
2022-10-17T10:53:35.626Z,18.76
2022-10-17T10:56:37.499Z,19.33
2022-10-17T10:59:11.036Z,19.48
2022-10-17T11:02:03.950Z,20.13
2022-10-17T11:05:22.896Z,19.78
2022-10-17T11:08:08.996Z,19.66
2022-10-17T11:11:08.272Z,19.22
2022-10-17T11:14:06.948Z,19.10
2022-10-17T11:17:17.364Z,17.79
2022-10-17T11:20:21.278Z,18.19
2022-10-17T11:23:14.709Z,18.00
2022-10-17T11:26:22.962Z,18.54
2022-10-17T11:29:11.979Z,18.77
2022-10-17T11:32:16.688Z,19.17
2022-10-17T11:35:04.485Z,18.41
2022-10-17T11:37:50.333Z,17.83
2022-10-17T11:40:45.068Z,16.77
2022-10-17T11:43:41.363Z,16.90
2022-10-17T11:46:32.513Z,16.58
2022-10-17T11:49:20.351Z,15.99
2022-10-17T11:52:56.381Z,16.78
2022-10-17T11:55:40.373Z,16.00
2022-10-17T11:59:24.475Z,15.54
2022-10-17T12:02:27.010Z,15.88
2022-10-17T12:06:22.895Z,16.70
2022-10-17T12:09:49.890Z,16.92
2022-10-17T12:12:35.401Z,16.23
2022-10-17T12:15:25.011Z,16.94
2022-10-17T12:18:13.692Z,16.25
2022-10-17T12:21:18.768Z,16.77
2022-10-17T12:24:06.435Z,16.31
2022-10-17T12:26:40.920Z,15.84
2022-10-17T12:29:30.834Z,16.25
2022-10-17T12:32:36.823Z,17.17
2022-10-17T12:35:30.850Z,17.21
2022-10-17T12:38:19.588Z,17.44
2022-10-17T12:40:55.695Z,17.07
2022-10-17T12:43:45.016Z,17.94
2022-10-17T12:46:48.194Z,18.62
2022-10-17T12:49:48.819Z,19.08
2022-10-17T12:52:41.606Z,18.94
2022-10-17T12:55:19.448Z,18.92
2022-10-17T12:58:23.953Z,19.89
2022-10-17T13:01:22.584Z,18.96
2022-10-17T13:03:52.962Z,19.07
2022-10-17T13:06:29.697Z,19.12
2022-10-17T13:09:09.313Z,20.05
2022-10-17T13:11:41.707Z,19.91
2022-10-17T13:14:17.704Z,21.25
2022-10-17T13:17:04.451Z,20.69
2022-10-17T13:19:45.746Z,20.36
2022-10-17T13:22:31.986Z,21.19
2022-10-17T13:25:19.576Z,21.60
2022-10-17T13:27:49.921Z,21.71
2022-10-17T13:30:37.251Z,21.41
2022-10-17T13:33:34.073Z,21.12
2022-10-17T13:36:08.803Z,21.07
2022-10-17T13:38:40.348Z,21.01
2022-10-17T13:44:26.601Z,21.55
2022-10-17T13:46:55.024Z,22.77
2022-10-17T13:49:52.910Z,24.00
2022-10-17T13:52:29.712Z,24.73
2022-10-17T13:55:17.896Z,25.94
2022-10-17T13:57:45.713Z,29.12
2022-10-17T14:00:22.861Z,30.93
2022-10-17T14:02:50.570Z,31.31
2022-10-17T14:05:23.374Z,31.98
2022-10-17T14:08:22.757Z,32.13
2022-10-17T14:10:49.202Z,31.74
2022-10-17T14:13:24.112Z,32.53
2022-10-17T14:15:54.891Z,32.20
2022-10-17T14:18:35.914Z,32.07
2022-10-17T14:24:36.413Z,32.26
2022-10-17T14:27:35.129Z,32.15
2022-10-17T14:30:51.729Z,33.14
2022-10-17T14:33:31.247Z,33.35
2022-10-17T14:36:02.189Z,32.90
2022-10-17T14:38:30.991Z,32.46
2022-10-17T14:44:17.554Z,33.11
2022-10-17T14:46:50.890Z,33.17
2022-10-17T14:49:42.935Z,32.98
2022-10-17T14:52:18.778Z,33.47
2022-10-17T14:54:49.933Z,34.31
2022-10-17T14:57:45.332Z,34.24
2022-10-17T15:00:20.112Z,34.86
2022-10-17T15:02:50.313Z,34.96
2022-10-17T15:05:18.513Z,35.33
2022-10-17T15:07:46.700Z,35.21
2022-10-17T15:10:37.080Z,35.20
2022-10-17T15:13:26.611Z,34.51
2022-10-17T15:15:52.674Z,34.50
2022-10-17T15:18:20.110Z,34.85
2022-10-17T15:20:51.994Z,35.31
2022-10-17T15:23:27.420Z,35.39
2022-10-17T15:25:54.773Z,36.32
2022-10-17T15:28:22.111Z,36.95
2022-10-17T15:30:49.745Z,36.21
2022-10-17T15:33:17.470Z,36.38
2022-10-17T15:35:44.788Z,36.44
2022-10-17T15:38:18.106Z,36.30
2022-10-17T15:40:49.018Z,36.83
2022-10-17T15:43:19.902Z,36.80
2022-10-17T15:45:48.202Z,36.28
2022-10-17T15:48:55.835Z,36.68
2022-10-17T15:51:24.217Z,37.82
2022-10-17T15:53:51.532Z,38.04
2022-10-17T15:56:29.604Z,38.27
2022-10-17T15:58:58.146Z,38.10
2022-10-17T16:01:28.922Z,37.80
2022-10-17T16:03:56.668Z,38.48
2022-10-17T16:06:24.838Z,38.46
2022-10-17T16:08:52.836Z,38.64
2022-10-17T16:11:37.199Z,39.29
2022-10-17T16:14:11.486Z,39.67
2022-10-17T16:16:40.116Z,40.05
2022-10-17T16:19:10.228Z,40.57
2022-10-17T16:21:41.022Z,40.94
2022-10-17T16:24:12.349Z,41.74
2022-10-17T16:26:41.263Z,43.62
2022-10-17T16:29:12.052Z,44.14
2022-10-17T16:31:45.598Z,44.89
2022-10-17T16:34:16.739Z,45.91
2022-10-17T16:36:44.050Z,46.06
2022-10-17T16:39:11.310Z,46.18
2022-10-17T16:41:39.800Z,46.72
2022-10-17T16:44:14.499Z,47.48
2022-10-17T16:46:42.164Z,48.02
2022-10-17T16:49:10.735Z,47.81
2022-10-17T16:52:04.581Z,48.58
2022-10-17T16:54:33.229Z,49.16
2022-10-17T16:57:01.929Z,48.94
2022-10-17T16:59:29.779Z,51.27
2022-10-17T17:01:57.169Z,51.66
2022-10-17T17:04:24.790Z,52.17
2022-10-17T17:06:52.346Z,52.85
2022-10-17T17:09:19.904Z,53.74
2022-10-17T17:11:47.486Z,53.20
2022-10-17T17:14:15.579Z,53.46
2022-10-17T17:16:43.510Z,53.18
2022-10-17T17:19:16.874Z,53.94
2022-10-17T17:21:50.173Z,53.47
2022-10-17T17:24:23.698Z,53.21
2022-10-17T17:26:59.140Z,53.37
2022-10-17T17:29:27.021Z,53.69
2022-10-17T17:31:54.848Z,54.08
2022-10-17T17:34:22.483Z,54.98
2022-10-17T17:36:49.935Z,55.00
2022-10-17T17:39:17.356Z,55.20
2022-10-17T17:41:45.904Z,55.60
2022-10-17T17:44:16.758Z,55.38
2022-10-17T17:46:45.712Z,55.55
2022-10-17T17:49:14.356Z,55.97
2022-10-17T17:51:46.695Z,56.17
2022-10-17T17:54:15.274Z,57.92
2022-10-17T17:56:43.199Z,57.43
2022-10-17T17:59:13.770Z,57.24
2022-10-17T18:01:41.662Z,57.23
2022-10-17T18:04:16.621Z,57.56
2022-10-17T18:06:44.519Z,58.90
2022-10-17T18:09:12.001Z,59.12
2022-10-17T18:11:39.513Z,60.14
2022-10-17T18:14:12.021Z,59.48
2022-10-17T18:16:39.782Z,58.53
2022-10-17T18:19:10.954Z,58.42
2022-10-17T18:21:38.464Z,59.67
2022-10-17T18:24:07.642Z,59.91
2022-10-17T18:26:35.283Z,59.34
2022-10-17T18:29:04.372Z,59.28
2022-10-17T18:31:35.666Z,59.24
2022-10-17T18:34:05.346Z,60.12
2022-10-17T18:36:35.089Z,60.50
2022-10-17T18:39:04.248Z,60.80
2022-10-17T18:41:32.465Z,61.36
2022-10-17T18:44:03.515Z,62.10
2022-10-17T18:46:47.846Z,63.11
2022-10-17T18:49:23.186Z,63.53
2022-10-17T18:51:51.726Z,62.86
2022-10-17T18:54:22.214Z,64.04
2022-10-17T18:56:56.247Z,63.69
2022-10-17T18:59:28.377Z,63.34
2022-10-17T19:01:55.690Z,63.86
2022-10-17T19:04:26.162Z,64.80
2022-10-17T19:06:53.465Z,64.09
2022-10-17T19:09:20.800Z,63.69
2022-10-17T19:11:48.076Z,64.10
2022-10-17T19:14:15.397Z,63.97
2022-10-17T19:16:48.294Z,62.94
2022-10-17T19:19:25.922Z,65.48
2022-10-17T19:21:54.059Z,64.24
2022-10-17T19:24:27.320Z,63.81
2022-10-17T19:27:00.439Z,63.61
2022-10-17T19:29:33.419Z,64.22
2022-10-17T19:32:02.493Z,65.03
2022-10-17T19:34:29.805Z,64.82
2022-10-17T19:36:57.868Z,65.21
2022-10-17T19:39:26.464Z,66.14
2022-10-17T19:41:53.825Z,67.15
2022-10-17T19:44:21.065Z,66.46
2022-10-17T19:46:49.191Z,66.89
2022-10-17T19:49:16.935Z,66.54
2022-10-17T19:51:44.993Z,66.76
2022-10-17T19:54:13.348Z,66.56
2022-10-17T19:56:46.434Z,66.58
2022-10-17T19:59:17.171Z,65.78
2022-10-17T20:01:45.448Z,66.27
2022-10-17T20:04:17.810Z,65.79
2022-10-17T20:06:45.289Z,66.13
2022-10-17T20:09:16.655Z,66.16
2022-10-17T20:11:45.490Z,66.32
2022-10-17T20:14:12.761Z,67.04
2022-10-17T20:16:39.963Z,67.50
2022-10-17T20:19:12.589Z,68.77
2022-10-17T20:21:39.890Z,68.21
2022-10-17T20:24:13.857Z,68.27
2022-10-17T20:26:42.902Z,68.47
2022-10-17T20:29:20.454Z,67.22
2022-10-17T20:31:48.892Z,66.18
2022-10-17T20:34:19.084Z,66.56
2022-10-17T20:36:48.615Z,66.39
2022-10-17T20:39:19.790Z,67.42
2022-10-17T20:41:47.918Z,67.41
2022-10-17T20:44:15.853Z,67.60
2022-10-17T20:47:00.759Z,68.80
2022-10-17T20:49:32.084Z,69.92
2022-10-17T20:52:01.062Z,69.56
2022-10-17T20:54:28.507Z,69.59
2022-10-17T20:56:57.799Z,70.89
2022-10-17T20:59:28.388Z,69.87
2022-10-17T21:01:55.968Z,68.74
2022-10-17T21:07:10.733Z,69.95
2022-10-17T21:09:38.204Z,69.81
2022-10-17T21:12:05.714Z,69.66
2022-10-17T21:14:33.628Z,69.47
2022-10-17T21:17:04.680Z,69.86
2022-10-17T21:19:32.889Z,69.89
2022-10-17T21:22:06.532Z,70.53
2022-10-17T21:24:34.180Z,71.03
2022-10-17T21:27:01.606Z,71.15
2022-10-17T21:29:28.838Z,71.43
2022-10-17T21:31:56.245Z,71.47
2022-10-17T21:34:24.915Z,71.20
2022-10-17T21:36:53.227Z,71.36
2022-10-17T21:39:21.878Z,70.70
2022-10-17T21:41:49.077Z,70.65
2022-10-17T21:44:25.774Z,72.47
2022-10-17T21:46:54.829Z,72.89
2022-10-17T21:49:25.646Z,73.36
2022-10-17T21:51:53.525Z,73.30
2022-10-17T21:54:25.866Z,73.42
2022-10-17T21:56:53.095Z,74.59
2022-10-17T21:59:20.263Z,74.17
2022-10-17T22:01:47.607Z,72.62
2022-10-17T22:04:39.743Z,73.18
2022-10-17T22:07:07.240Z,72.76
2022-10-17T22:09:34.585Z,73.70
2022-10-17T22:12:01.869Z,72.29
2022-10-17T22:14:29.300Z,71.76
2022-10-17T22:16:56.618Z,71.91
2022-10-17T22:19:27.528Z,71.44
2022-10-17T22:21:55.697Z,71.75
2022-10-17T22:24:23.902Z,72.01
2022-10-17T22:26:52.864Z,71.70
2022-10-17T22:29:20.816Z,71.41
2022-10-17T22:31:48.311Z,72.23
2022-10-17T22:34:18.346Z,73.56
2022-10-17T22:36:47.592Z,73.71
2022-10-17T22:39:14.842Z,71.49
2022-10-17T22:41:42.010Z,70.49
2022-10-17T22:44:09.392Z,71.95
2022-10-17T22:46:41.830Z,72.57
2022-10-17T22:49:09.063Z,72.01
2022-10-17T22:51:36.268Z,72.66
2022-10-17T22:54:03.927Z,72.74
2022-10-17T22:56:31.652Z,71.59
2022-10-17T22:58:59.644Z,70.66
2022-10-17T23:01:27.140Z,70.24
2022-10-17T23:03:54.559Z,70.70
2022-10-17T23:06:23.827Z,70.86
2022-10-17T23:08:52.167Z,71.35
2022-10-17T23:11:20.697Z,71.54
2022-10-17T23:13:48.317Z,70.70
2022-10-17T23:16:15.816Z,69.31
2022-10-17T23:18:44.103Z,70.15
2022-10-17T23:21:11.938Z,70.63
2022-10-17T23:23:39.257Z,70.60
2022-10-17T23:26:11.858Z,70.63
2022-10-17T23:28:40.802Z,69.88
2022-10-17T23:31:19.571Z,68.88
2022-10-17T23:33:49.934Z,70.01
2022-10-17T23:36:20.581Z,70.33
2022-10-17T23:38:48.904Z,70.52
2022-10-17T23:41:17.299Z,70.88
2022-10-17T23:43:45.032Z,72.30
2022-10-17T23:46:12.805Z,71.54
2022-10-17T23:48:41.566Z,71.65
2022-10-17T23:51:10.560Z,71.88
2022-10-17T23:53:40.176Z,73.88
2022-10-17T23:56:10.427Z,72.43
2022-10-17T23:58:39.614Z,72.94
